Terminal Aerodrome Forecast
Issued by NWS

Home | Current Version | Previous Version | Graphics & Text | Print | Product List | Glossary On
Versions: 1 2 3 4 5 6 7 8 9 10 11 12 13
000
FTUS45 KGGW 101945 AAA
TAFSDY
TAF AMD
KSDY 101945Z 1020/1118 28018KT P6SM SCT150
     FM110300 29014KT P6SM FEW150 WS020/31045KT
     FM110600 30018KT P6SM BKN060
     FM110900 31015KT P6SM BKN030
     FM111600 31010KT P6SM BKN025=

USA.gov is the U.S. government's official web portal to all federal, state and local government web resources and services.